Time;durP1;ratioP1;P1;durP2;ratioP2;P2;SDS_P1;SDS_P2;PMS_P1;PMS_P2;Temp;Humidity;BMP_temperature;BMP_pressure;BME280_temperature;BME280_humidity;BME280_pressure;Samples;Min_cycle;Max_cycle;Signal;HPM_P1;HPM_P2
2022/11/21 00:00:40;;;;;;;8.53;2.07;;;6.00;99.90;;;;;;5074306;28;20451;-66
2022/11/21 00:03:07;;;;;;;5.03;2.30;;;6.00;99.90;;;;;;5074225;28;20460;-66
2022/11/21 00:05:34;;;;;;;6.10;1.80;;;6.00;99.90;;;;;;5073796;28;20450;-65
2022/11/21 00:08:02;;;;;;;11.10;2.00;;;6.00;99.90;;;;;;5073648;28;20477;-66
2022/11/21 00:10:28;;;;;;;5.70;2.30;;;5.90;99.90;;;;;;5074147;28;20448;-66
2022/11/21 00:12:56;;;;;;;7.13;1.87;;;5.90;99.90;;;;;;5074082;28;20492;-65
2022/11/21 00:15:24;;;;;;;4.30;1.60;;;5.90;99.90;;;;;;5074047;28;20482;-66
2022/11/21 00:17:51;;;;;;;8.07;2.37;;;5.90;99.90;;;;;;5073606;28;20980;-66
2022/11/21 00:20:19;;;;;;;6.03;2.30;;;5.90;99.90;;;;;;5074115;28;20452;-66
2022/11/21 00:22:46;;;;;;;7.87;2.83;;;5.90;99.90;;;;;;5073401;28;20946;-66
2022/11/21 00:25:14;;;;;;;10.63;2.00;;;5.90;99.90;;;;;;5073383;28;20459;-66
2022/11/21 00:27:41;;;;;;;6.00;2.13;;;5.90;99.90;;;;;;5073891;28;20449;-66
2022/11/21 00:30:13;;;;;;;4.30;2.00;;;5.90;99.90;;;;;;5074285;28;20451;-66
2022/11/21 00:32:40;;;;;;;9.60;2.50;;;5.90;99.90;;;;;;5073538;28;20481;-67
2022/11/21 00:35:08;;;;;;;8.33;2.30;;;5.90;99.90;;;;;;5073088;28;20456;-66
2022/11/21 00:37:34;;;;;;;6.23;2.23;;;5.90;99.90;;;;;;5073313;28;20969;-66
2022/11/21 00:40:01;;;;;;;4.70;2.47;;;5.90;99.90;;;;;;5072128;28;20450;-66
2022/11/21 00:42:29;;;;;;;10.53;2.50;;;5.90;99.90;;;;;;5073122;28;20454;-66
2022/11/21 00:44:56;;;;;;;13.00;2.57;;;5.90;99.90;;;;;;5073434;28;20464;-66
2022/11/21 00:47:22;;;;;;;11.50;3.30;;;5.90;99.90;;;;;;5074197;28;20452;-66
2022/11/21 00:49:49;;;;;;;4.30;2.07;;;6.00;99.90;;;;;;5073276;28;20460;-66
2022/11/21 00:52:16;;;;;;;15.97;3.00;;;6.00;99.90;;;;;;5073283;28;20451;-66
2022/11/21 00:54:43;;;;;;;10.57;2.57;;;6.00;99.90;;;;;;5073399;28;20786;-66
2022/11/21 00:57:09;;;;;;;6.97;2.30;;;6.00;99.90;;;;;;5073371;28;20937;-66
2022/11/21 00:59:37;;;;;;;7.23;2.33;;;6.00;99.90;;;;;;5072988;28;20463;-66
2022/11/21 01:02:04;;;;;;;4.13;2.20;;;6.00;99.90;;;;;;5073079;28;20450;-66
2022/11/21 01:04:31;;;;;;;6.57;2.50;;;6.00;99.90;;;;;;5072363;28;20925;-66
2022/11/21 01:06:58;;;;;;;8.53;2.40;;;6.00;99.90;;;;;;5072903;28;20538;-65
2022/11/21 01:09:25;;;;;;;13.80;3.70;;;6.00;99.90;;;;;;5073025;28;20479;-66
2022/11/21 01:11:51;;;;;;;8.23;2.83;;;6.00;99.90;;;;;;5073029;28;20462;-66
2022/11/21 01:14:18;;;;;;;6.27;2.57;;;6.00;99.90;;;;;;5072758;28;20515;-67
2022/11/21 01:16:46;;;;;;;3.60;2.30;;;6.00;99.90;;;;;;5072344;28;20453;-66
2022/11/21 01:19:13;;;;;;;5.77;2.30;;;5.90;99.90;;;;;;5072876;28;20511;-67
2022/11/21 01:21:39;;;;;;;4.10;2.50;;;5.90;99.90;;;;;;5073039;28;20447;-67
2022/11/21 01:24:06;;;;;;;11.87;2.80;;;5.90;99.90;;;;;;5072775;28;20468;-66
2022/11/21 01:26:33;;;;;;;5.07;2.23;;;5.90;99.90;;;;;;5072250;28;20518;-67
2022/11/21 01:29:00;;;;;;;5.30;2.20;;;5.90;99.90;;;;;;5072985;28;20452;-66
2022/11/21 01:31:29;;;;;;;9.00;2.37;;;5.90;99.90;;;;;;5072531;28;20452;-66
2022/11/21 01:33:58;;;;;;;5.20;2.23;;;5.80;99.90;;;;;;5072699;28;20491;-67
2022/11/21 01:36:27;;;;;;;5.73;2.20;;;5.80;99.90;;;;;;5072890;28;20453;-66
2022/11/21 01:38:55;;;;;;;6.10;2.23;;;5.90;99.90;;;;;;5068611;28;20517;-67
2022/11/21 01:41:25;;;;;;;11.57;2.33;;;5.80;99.90;;;;;;5072246;28;20450;-66
2022/11/21 01:43:52;;;;;;;6.80;2.57;;;5.90;99.90;;;;;;5072063;28;20472;-66
2022/11/21 01:46:19;;;;;;;5.70;2.27;;;5.80;99.90;;;;;;5071796;28;20455;-67
2022/11/21 01:48:52;;;;;;;10.00;2.40;;;5.80;99.90;;;;;;5072480;28;20452;-67
2022/11/21 01:51:24;;;;;;;6.07;1.90;;;5.80;99.90;;;;;;5072268;28;20464;-66
2022/11/21 01:53:55;;;;;;;7.63;2.40;;;5.90;99.90;;;;;;5071844;28;20491;-67
2022/11/21 01:56:23;;;;;;;8.80;2.77;;;5.90;99.90;;;;;;5072031;28;20474;-67
2022/11/21 01:58:53;;;;;;;4.43;2.17;;;5.90;99.90;;;;;;5071646;28;20864;-67
2022/11/21 02:01:19;;;;;;;8.27;2.70;;;5.90;99.90;;;;;;5072045;28;20827;-66
2022/11/21 02:03:48;;;;;;;9.10;2.90;;;6.00;99.90;;;;;;5071878;28;20464;-66
2022/11/21 02:06:14;;;;;;;7.20;2.70;;;6.00;99.90;;;;;;5072171;28;20843;-67
2022/11/21 02:08:44;;;;;;;5.80;2.47;;;6.00;99.90;;;;;;5071596;28;20455;-67
2022/11/21 02:11:19;;;;;;;7.37;2.47;;;6.00;99.90;;;;;;5072023;28;20937;-67
2022/11/21 02:13:46;;;;;;;9.63;2.83;;;6.00;99.90;;;;;;5071630;28;20476;-67
2022/11/21 02:16:13;;;;;;;6.20;2.27;;;6.00;99.90;;;;;;5071705;28;20484;-67
2022/11/21 02:18:39;;;;;;;5.90;2.70;;;6.00;99.90;;;;;;5071116;28;20456;-67
2022/11/21 02:21:16;;;;;;;12.70;2.73;;;6.00;99.90;;;;;;5071714;28;20464;-67
2022/11/21 02:23:53;;;;;;;11.77;3.23;;;6.00;99.90;;;;;;5071564;28;20473;-67
2022/11/21 02:26:21;;;;;;;9.30;2.33;;;6.00;99.90;;;;;;5071926;28;20452;-66
2022/11/21 02:28:48;;;;;;;15.53;2.73;;;6.00;99.90;;;;;;5071485;28;20454;-67
2022/11/21 02:31:15;;;;;;;10.37;3.07;;;6.00;99.90;;;;;;5071122;28;20917;-67
2022/11/21 02:33:41;;;;;;;7.37;2.87;;;6.00;99.90;;;;;;5071194;28;20495;-67
2022/11/21 02:36:44;;;;;;;11.33;2.93;;;6.00;99.90;;;;;;5071561;28;20451;-67
2022/11/21 02:39:15;;;;;;;17.13;3.97;;;6.00;99.90;;;;;;5062606;28;20448;-67
2022/11/21 02:41:51;;;;;;;8.10;2.67;;;6.00;99.90;;;;;;5071405;28;20811;-67
2022/11/21 02:44:23;;;;;;;12.13;4.37;;;6.00;99.90;;;;;;5071337;28;20464;-67
2022/11/21 02:46:51;;;;;;;7.93;2.63;;;6.00;99.90;;;;;;5071280;28;20493;-67
2022/11/21 02:49:25;;;;;;;9.70;3.07;;;6.00;99.90;;;;;;5071360;28;20452;-67
2022/11/21 02:51:52;;;;;;;12.30;2.70;;;6.00;99.90;;;;;;5071279;28;20474;-67
2022/11/21 02:54:19;;;;;;;11.33;2.70;;;6.00;99.90;;;;;;5070648;28;20488;-67
2022/11/21 02:56:46;;;;;;;15.00;2.53;;;6.00;99.90;;;;;;5071269;28;20455;-66
2022/11/21 02:59:13;;;;;;;15.63;3.03;;;6.00;99.90;;;;;;5071191;28;20813;-67
2022/11/21 03:01:40;;;;;;;11.47;3.00;;;6.00;99.90;;;;;;5071491;28;20937;-66
2022/11/21 03:04:06;;;;;;;9.67;2.97;;;6.00;99.90;;;;;;5070618;28;20475;-67
2022/11/21 03:06:33;;;;;;;19.73;3.37;;;6.00;99.90;;;;;;5071423;28;20454;-66
2022/11/21 03:09:00;;;;;;;10.77;3.13;;;6.00;99.90;;;;;;5071157;28;20456;-67
2022/11/21 03:11:26;;;;;;;11.10;3.47;;;6.00;99.90;;;;;;5071341;28;20456;-67
2022/11/21 03:13:54;;;;;;;15.33;3.10;;;6.00;99.90;;;;;;5070630;28;20983;-66
2022/11/21 03:16:21;;;;;;;12.73;3.50;;;6.00;99.90;;;;;;5071295;28;20447;-66
2022/11/21 03:18:48;;;;;;;5.00;2.37;;;6.00;99.90;;;;;;5071415;28;20456;-66
2022/11/21 03:21:15;;;;;;;9.63;3.40;;;6.00;99.90;;;;;;5071038;28;20448;-66
2022/11/21 03:23:41;;;;;;;10.43;3.13;;;6.10;99.90;;;;;;5070747;28;20472;-66
2022/11/21 03:26:08;;;;;;;18.07;3.83;;;6.00;99.90;;;;;;5071000;28;20460;-66
2022/11/21 03:28:34;;;;;;;19.50;3.67;;;6.10;99.90;;;;;;5070817;28;20455;-66
2022/11/21 03:31:02;;;;;;;10.20;2.80;;;6.00;99.90;;;;;;5070912;28;20462;-66
2022/11/21 03:33:29;;;;;;;15.30;4.07;;;6.00;99.90;;;;;;5074318;28;20487;-66
2022/11/21 03:35:56;;;;;;;9.90;3.30;;;6.00;99.90;;;;;;5075019;28;20520;-66
2022/11/21 03:38:22;;;;;;;23.80;3.07;;;6.00;99.90;;;;;;5074578;28;20452;-66
2022/11/21 03:40:49;;;;;;;17.40;4.53;;;6.00;99.90;;;;;;5074881;28;20444;-66
2022/11/21 03:43:16;;;;;;;11.30;3.20;;;6.00;99.90;;;;;;5074523;28;20477;-66
2022/11/21 03:45:46;;;;;;;20.70;3.83;;;6.00;99.90;;;;;;5074744;28;20456;-67
2022/11/21 03:48:14;;;;;;;17.57;3.40;;;6.00;99.90;;;;;;5074700;28;20448;-66
2022/11/21 03:50:43;;;;;;;17.13;4.20;;;6.20;99.90;;;;;;5074236;28;20452;-66
2022/11/21 03:53:09;;;;;;;12.13;3.13;;;6.00;99.90;;;;;;5074234;28;20472;-67
2022/11/21 03:55:36;;;;;;;15.43;3.80;;;6.00;99.90;;;;;;5074566;28;20467;-66
2022/11/21 03:58:03;;;;;;;12.60;3.80;;;6.00;99.90;;;;;;5074413;28;20509;-66
2022/11/21 04:00:29;;;;;;;17.17;3.37;;;6.00;99.90;;;;;;5074050;28;20459;-66
2022/11/21 04:02:56;;;;;;;9.93;3.27;;;6.00;99.90;;;;;;5074263;28;20467;-66
2022/11/21 04:05:24;;;;;;;20.53;3.20;;;6.00;99.90;;;;;;5074316;28;20444;-66
2022/11/21 04:07:52;;;;;;;15.23;3.90;;;6.00;99.90;;;;;;5073956;28;20452;-67
2022/11/21 04:10:19;;;;;;;9.33;3.53;;;6.00;99.90;;;;;;5073498;28;20842;-67
2022/11/21 04:12:46;;;;;;;14.50;3.67;;;5.90;99.90;;;;;;5073913;28;20528;-67
2022/11/21 04:15:13;;;;;;;8.60;3.47;;;5.90;99.90;;;;;;5074370;28;20484;-67
2022/11/21 04:17:39;;;;;;;11.67;3.43;;;5.90;99.90;;;;;;5073187;28;20460;-67
2022/11/21 04:20:07;;;;;;;14.93;4.57;;;5.90;99.90;;;;;;5074112;28;20447;-66
2022/11/21 04:22:35;;;;;;;17.13;4.50;;;5.80;99.90;;;;;;5073696;28;20456;-66
2022/11/21 04:25:01;;;;;;;15.33;4.10;;;5.80;99.90;;;;;;5073889;28;20449;-66
2022/11/21 04:27:28;;;;;;;23.17;4.00;;;5.80;99.90;;;;;;5073787;28;20451;-66
2022/11/21 04:29:54;;;;;;;9.63;4.13;;;5.80;99.90;;;;;;5073753;28;20465;-66
2022/11/21 04:32:21;;;;;;;9.63;3.77;;;5.80;99.90;;;;;;5073749;28;20873;-66
2022/11/21 04:34:48;;;;;;;8.37;3.63;;;5.80;99.90;;;;;;5073799;28;20509;-66
2022/11/21 04:37:14;;;;;;;20.70;4.17;;;5.80;99.90;;;;;;5066078;28;20453;-66
2022/11/21 04:39:42;;;;;;;17.40;3.80;;;5.80;99.90;;;;;;5073063;28;20464;-66
2022/11/21 04:42:09;;;;;;;10.10;3.77;;;5.80;99.90;;;;;;5072869;28;20447;-66
2022/11/21 04:44:36;;;;;;;17.83;3.93;;;5.80;99.90;;;;;;5073514;28;20527;-66
2022/11/21 04:47:02;;;;;;;13.93;3.50;;;5.80;99.90;;;;;;5073754;28;20508;-66
2022/11/21 04:49:29;;;;;;;21.33;4.90;;;5.80;99.90;;;;;;5073707;28;20458;-66
2022/11/21 04:51:56;;;;;;;14.00;4.00;;;5.70;99.90;;;;;;5073294;28;20451;-66
2022/11/21 04:54:22;;;;;;;19.03;4.80;;;5.70;99.90;;;;;;5072350;28;20488;-66
2022/11/21 04:56:50;;;;;;;25.40;4.37;;;5.70;99.90;;;;;;5073097;28;20448;-66
2022/11/21 04:59:17;;;;;;;14.27;4.30;;;5.70;99.90;;;;;;5073432;28;20446;-66
2022/11/21 05:01:43;;;;;;;11.50;4.23;;;5.70;99.90;;;;;;5073102;28;20516;-66
2022/11/21 05:04:10;;;;;;;22.13;4.60;;;5.70;99.90;;;;;;5072160;28;20542;-66
2022/11/21 05:06:37;;;;;;;14.30;4.50;;;5.70;99.90;;;;;;5072817;28;20866;-66
2022/11/21 05:09:03;;;;;;;17.47;5.13;;;5.70;99.90;;;;;;5072614;28;20459;-66
2022/11/21 05:14:16;;;;;;;14.00;4.30;;;5.70;99.90;;;;;;5072605;28;20483;-66
2022/11/21 05:16:42;;;;;;;19.87;4.67;;;5.70;99.90;;;;;;5072859;28;20456;-66
2022/11/21 05:19:09;;;;;;;22.47;4.47;;;5.70;99.90;;;;;;5073081;28;20494;-67
2022/11/21 05:21:36;;;;;;;16.40;5.00;;;5.60;99.90;;;;;;5073330;28;20462;-67
2022/11/21 05:24:03;;;;;;;14.00;4.73;;;5.60;99.90;;;;;;5072447;28;20464;-67
2022/11/21 05:26:29;;;;;;;11.87;4.87;;;5.60;99.90;;;;;;5072728;28;20451;-67
2022/11/21 05:28:56;;;;;;;10.70;4.97;;;5.60;99.90;;;;;;5072836;28;20455;-67
2022/11/21 05:31:24;;;;;;;13.87;4.13;;;5.60;99.90;;;;;;5072892;28;20463;-67
2022/11/21 05:33:50;;;;;;;7.80;4.53;;;5.60;99.90;;;;;;5072289;28;20478;-66
2022/11/21 05:36:17;;;;;;;13.33;4.70;;;5.60;99.90;;;;;;5072023;28;20516;-67
2022/11/21 05:38:44;;;;;;;12.80;4.80;;;5.60;99.90;;;;;;5072725;28;20444;-67
2022/11/21 05:41:10;;;;;;;16.60;5.10;;;5.60;99.90;;;;;;5072635;28;20444;-67
2022/11/21 05:43:45;;;;;;;27.27;5.27;;;5.60;99.90;;;;;;5071475;28;20478;-67
2022/11/21 05:46:12;;;;;;;22.17;5.60;;;5.60;99.90;;;;;;5071965;28;20505;-67
2022/11/21 05:48:40;;;;;;;15.70;4.43;;;5.60;99.90;;;;;;5072093;28;20456;-67
2022/11/21 05:51:07;;;;;;;10.33;4.60;;;5.60;99.90;;;;;;5070648;28;20454;-67
2022/11/21 05:53:34;;;;;;;9.23;4.37;;;5.60;99.90;;;;;;5066579;28;20475;-67
2022/11/21 05:56:04;;;;;;;18.47;4.93;;;5.60;99.90;;;;;;5071073;28;20478;-67
2022/11/21 05:58:31;;;;;;;13.33;4.40;;;5.60;99.90;;;;;;5071427;28;20462;-67
2022/11/21 06:00:57;;;;;;;15.73;5.27;;;5.60;99.90;;;;;;5071938;28;20450;-67
2022/11/21 06:03:26;;;;;;;11.97;4.40;;;5.50;99.90;;;;;;5071568;28;20510;-67
2022/11/21 06:05:59;;;;;;;17.23;4.37;;;5.50;99.90;;;;;;5071208;28;20457;-67
2022/11/21 06:08:26;;;;;;;12.63;4.40;;;5.60;99.90;;;;;;5071274;28;21023;-67
2022/11/21 06:10:52;;;;;;;11.57;4.20;;;5.60;99.90;;;;;;5071948;28;20997;-67
2022/11/21 06:13:22;;;;;;;9.23;4.70;;;5.60;99.90;;;;;;5070769;28;20491;-67
2022/11/21 06:15:50;;;;;;;14.07;4.00;;;5.60;99.90;;;;;;5069933;28;20490;-68
2022/11/21 06:18:17;;;;;;;21.20;4.97;;;5.60;99.90;;;;;;5068109;28;20888;-67
2022/11/21 06:20:44;;;;;;;11.00;4.80;;;5.60;99.90;;;;;;5070523;28;20455;-67
2022/11/21 06:23:12;;;;;;;7.40;3.90;;;5.60;99.90;;;;;;5071496;28;20569;-66
2022/11/21 06:25:39;;;;;;;11.40;4.90;;;5.70;99.90;;;;;;5071114;28;20451;-66
2022/11/21 06:28:05;;;;;;;10.00;4.50;;;5.70;99.90;;;;;;5071549;28;20456;-66
2022/11/21 06:30:33;;;;;;;11.10;5.23;;;5.70;99.90;;;;;;5071675;28;20471;-67
2022/11/21 06:32:59;;;;;;;12.40;4.40;;;5.70;99.90;;;;;;5071022;28;20472;-66
2022/11/21 06:35:26;;;;;;;18.60;4.70;;;5.70;99.90;;;;;;5071856;28;20483;-67
2022/11/21 06:37:53;;;;;;;7.30;4.27;;;5.70;99.90;;;;;;5071487;28;20453;-66
2022/11/21 06:40:20;;;;;;;26.07;4.70;;;5.70;99.90;;;;;;5071505;28;20445;-66
2022/11/21 06:42:47;;;;;;;8.73;5.10;;;5.70;99.90;;;;;;5070991;28;20451;-66
2022/11/21 06:45:14;;;;;;;11.93;4.73;;;5.70;99.90;;;;;;5070707;28;20461;-68
2022/11/21 06:47:41;;;;;;;9.90;4.63;;;5.70;99.90;;;;;;5071433;28;20479;-66
2022/11/21 06:50:08;;;;;;;22.90;5.80;;;5.70;99.90;;;;;;5071321;28;20451;-67
2022/11/21 06:52:35;;;;;;;12.63;5.10;;;5.70;99.90;;;;;;5070934;28;21093;-66
2022/11/21 06:55:02;;;;;;;37.87;5.60;;;5.80;99.90;;;;;;5071395;28;20496;-67
2022/11/21 06:57:31;;;;;;;16.20;4.80;;;5.80;99.90;;;;;;5071290;28;20449;-66
2022/11/21 06:59:58;;;;;;;11.47;5.23;;;5.80;99.90;;;;;;5070965;28;20498;-66
2022/11/21 07:02:26;;;;;;;9.30;5.40;;;5.70;99.90;;;;;;5070527;28;20451;-67
2022/11/21 07:04:52;;;;;;;12.27;4.83;;;5.70;99.90;;;;;;5070927;28;20461;-66
2022/11/21 07:07:19;;;;;;;14.83;4.33;;;5.80;99.90;;;;;;5075700;28;20741;-66
2022/11/21 07:09:46;;;;;;;14.73;4.73;;;5.80;99.90;;;;;;5074938;28;20452;-66
2022/11/21 07:14:59;;;;;;;14.50;4.80;;;5.80;99.90;;;;;;5075451;28;20483;-67
2022/11/21 07:17:26;;;;;;;13.03;4.80;;;5.80;99.90;;;;;;5075341;28;20486;-67
2022/11/21 07:19:52;;;;;;;15.63;4.87;;;5.80;99.90;;;;;;5075338;28;20455;-66
2022/11/21 07:22:19;;;;;;;12.03;4.30;;;5.80;99.90;;;;;;5074708;28;20448;-67
2022/11/21 07:24:46;;;;;;;11.43;4.40;;;5.90;99.90;;;;;;5075285;28;20477;-66
2022/11/21 07:27:12;;;;;;;14.40;4.67;;;5.90;99.90;;;;;;5074881;28;20454;-66
2022/11/21 07:29:39;;;;;;;16.47;5.23;;;5.90;99.90;;;;;;5075148;28;20478;-66
2022/11/21 07:32:07;;;;;;;9.20;5.53;;;5.90;99.90;;;;;;5074107;28;21023;-66
2022/11/21 07:34:34;;;;;;;14.40;4.93;;;5.90;99.90;;;;;;5073672;28;20498;-67
2022/11/21 07:37:01;;;;;;;20.20;5.03;;;6.00;99.90;;;;;;5074457;28;20459;-67
2022/11/21 07:39:27;;;;;;;6.93;4.50;;;6.00;99.90;;;;;;5074531;28;20483;-67
2022/11/21 07:41:55;;;;;;;9.30;4.50;;;6.00;99.90;;;;;;5073775;28;20454;-68
2022/11/21 07:44:22;;;;;;;25.60;4.40;;;6.00;99.90;;;;;;5073402;28;20494;-68
2022/11/21 07:46:48;;;;;;;16.83;4.60;;;5.90;99.90;;;;;;5073993;28;20467;-68
2022/11/21 07:49:16;;;;;;;11.33;4.40;;;6.00;99.90;;;;;;5074290;28;20462;-68
2022/11/21 07:51:43;;;;;;;12.00;4.97;;;5.90;99.90;;;;;;5074049;28;20454;-68
2022/11/21 07:54:10;;;;;;;11.73;4.03;;;5.90;99.90;;;;;;5073678;28;20487;-68
2022/11/21 07:56:36;;;;;;;10.20;5.03;;;5.90;99.90;;;;;;5073512;28;20477;-68
2022/11/21 07:59:03;;;;;;;11.13;3.87;;;5.90;99.90;;;;;;5073753;28;20475;-68
2022/11/21 08:01:30;;;;;;;12.93;4.17;;;5.80;99.90;;;;;;5074141;28;20834;-68
2022/11/21 08:03:56;;;;;;;9.50;3.33;;;5.90;99.90;;;;;;5071939;28;20889;-68
2022/11/21 08:06:24;;;;;;;18.17;4.27;;;5.80;99.90;;;;;;5072492;28;20453;-68
2022/11/21 08:08:52;;;;;;;6.40;4.20;;;5.80;99.90;;;;;;5072695;28;20455;-68
2022/11/21 08:11:19;;;;;;;8.87;3.90;;;5.90;99.90;;;;;;5074148;28;20462;-67
2022/11/21 08:13:46;;;;;;;9.57;3.63;;;5.80;99.90;;;;;;5073541;28;20964;-67
2022/11/21 08:16:12;;;;;;;8.60;3.00;;;5.90;99.90;;;;;;5073097;28;20487;-67
2022/11/21 08:18:39;;;;;;;7.53;3.40;;;5.90;99.90;;;;;;5072743;28;20450;-67
2022/11/21 08:21:06;;;;;;;6.57;2.73;;;5.90;99.90;;;;;;5073813;28;20455;-67
2022/11/21 08:23:34;;;;;;;13.37;3.63;;;5.90;99.90;;;;;;5073893;28;20586;-68
2022/11/21 08:26:00;;;;;;;6.00;2.90;;;5.90;99.90;;;;;;5073891;28;20445;-67
2022/11/21 08:28:27;;;;;;;5.87;2.80;;;5.90;99.90;;;;;;5073923;28;20942;-67
2022/11/21 08:30:54;;;;;;;5.33;3.30;;;5.90;99.90;;;;;;5073533;28;20459;-68
2022/11/21 08:33:21;;;;;;;6.20;2.70;;;6.00;99.90;;;;;;5073340;28;20522;-67
2022/11/21 08:35:47;;;;;;;5.43;3.27;;;6.00;99.90;;;;;;5073607;28;20557;-67
2022/11/21 08:38:14;;;;;;;3.67;2.67;;;6.10;99.90;;;;;;5073179;28;20448;-68
2022/11/21 08:40:42;;;;;;;7.63;2.93;;;6.40;99.90;;;;;;5073740;28;20495;-67
2022/11/21 08:43:09;;;;;;;4.40;3.10;;;6.50;99.90;;;;;;5073483;28;20846;-67
2022/11/21 08:45:38;;;;;;;6.93;3.17;;;6.50;99.90;;;;;;5073793;28;20494;-67
2022/11/21 08:48:09;;;;;;;6.47;3.40;;;6.60;99.90;;;;;;5073476;28;20452;-68
2022/11/21 08:50:35;;;;;;;4.03;3.00;;;6.90;99.90;;;;;;5073467;28;20484;-67
2022/11/21 08:53:02;;;;;;;5.90;2.90;;;7.20;99.90;;;;;;5072932;28;20473;-67
2022/11/21 08:55:29;;;;;;;4.07;2.77;;;7.50;99.90;;;;;;5073195;28;20491;-68
2022/11/21 08:57:57;;;;;;;11.27;2.90;;;7.90;99.90;;;;;;5073119;28;20473;-67
2022/11/21 09:00:24;;;;;;;3.83;2.50;;;8.30;99.90;;;;;;5072697;28;20457;-68
2022/11/21 09:02:50;;;;;;;7.07;2.50;;;8.50;99.90;;;;;;5072911;28;20457;-67
2022/11/21 09:05:17;;;;;;;7.13;2.77;;;8.50;99.90;;;;;;5072032;28;20456;-67
2022/11/21 09:07:44;;;;;;;3.50;2.40;;;8.30;99.90;;;;;;5072367;28;21013;-68
2022/11/21 09:10:10;;;;;;;4.43;2.70;;;8.10;99.90;;;;;;5073085;28;20473;-68
2022/11/21 09:12:37;;;;;;;5.77;2.73;;;8.00;99.90;;;;;;5071572;28;20802;-68
2022/11/21 09:18:06;;;;;;;3.10;2.20;;;8.80;99.90;;;;;;5072925;28;20443;-68
2022/11/21 09:20:39;;;;;;;3.17;2.13;;;9.20;99.90;;;;;;5072816;28;20872;-67
2022/11/21 09:23:07;;;;;;;5.97;2.27;;;9.50;99.90;;;;;;5071978;28;20479;-68
2022/11/21 09:25:33;;;;;;;8.50;2.20;;;9.70;99.90;;;;;;5073291;28;20444;-68
2022/11/21 09:28:00;;;;;;;10.13;2.17;;;9.70;99.90;;;;;;5072533;28;20485;-68
2022/11/21 09:30:28;;;;;;;4.30;2.40;;;9.40;99.90;;;;;;5072697;28;21033;-68
2022/11/21 09:33:00;;;;;;;9.03;2.40;;;9.10;99.90;;;;;;5071646;28;20464;-68
2022/11/21 09:35:27;;;;;;;3.80;2.50;;;8.70;99.90;;;;;;5064039;28;20487;-68
2022/11/21 09:37:53;;;;;;;3.60;2.47;;;8.40;99.90;;;;;;5072422;28;20455;-68
2022/11/21 09:40:20;;;;;;;7.40;2.50;;;8.00;99.90;;;;;;5072619;28;20506;-68
2022/11/21 09:43:06;;;;;;;5.60;2.00;;;7.80;99.90;;;;;;5072634;28;20456;-68
2022/11/21 09:45:36;;;;;;;4.40;2.67;;;7.50;99.90;;;;;;5072428;28;20439;-68
2022/11/21 09:48:09;;;;;;;4.30;2.47;;;7.40;99.90;;;;;;5071546;28;20451;-67
2022/11/21 09:50:38;;;;;;;7.50;2.20;;;7.30;99.90;;;;;;5072444;28;20877;-68
2022/11/21 09:53:09;;;;;;;10.17;2.50;;;7.20;99.90;;;;;;5071689;28;20473;-68
2022/11/21 09:55:41;;;;;;;6.70;2.50;;;7.10;99.90;;;;;;5072388;28;20490;-68
2022/11/21 09:58:19;;;;;;;2.60;2.10;;;7.00;99.90;;;;;;5052342;28;20446;-68
2022/11/21 10:00:50;;;;;;;4.73;2.13;;;7.00;99.90;;;;;;5064925;28;20463;-68
2022/11/21 10:03:16;;;;;;;3.43;2.53;;;7.00;99.90;;;;;;5071038;28;20476;-68
2022/11/21 10:05:48;;;;;;;6.80;2.80;;;6.90;99.90;;;;;;5071069;28;20455;-68
2022/11/21 10:08:23;;;;;;;3.73;2.20;;;6.90;99.90;;;;;;5071817;28;20503;-68
2022/11/21 10:10:55;;;;;;;4.33;2.50;;;6.90;99.90;;;;;;5072009;28;20451;-68
2022/11/21 10:13:34;;;;;;;3.17;2.40;;;7.00;99.90;;;;;;5071551;28;20477;-67
2022/11/21 10:16:09;;;;;;;4.07;2.70;;;7.00;99.90;;;;;;5071856;28;20480;-68
2022/11/21 10:18:53;;;;;;;2.30;2.10;;;7.20;99.90;;;;;;5071641;28;20456;-68
2022/11/21 10:21:38;;;;;;;3.43;2.50;;;7.30;99.90;;;;;;5071475;28;20962;-68
2022/11/21 10:24:14;;;;;;;4.40;1.87;;;7.90;99.90;;;;;;5071031;28;20482;-68
2022/11/21 10:26:47;;;;;;;5.30;1.77;;;8.50;99.90;;;;;;5071756;28;20446;-68
2022/11/21 10:29:21;;;;;;;3.53;2.00;;;8.80;99.90;;;;;;5071532;28;20876;-68
2022/11/21 10:31:50;;;;;;;4.40;2.00;;;9.10;99.90;;;;;;5070643;28;20997;-67
2022/11/21 10:34:21;;;;;;;3.43;2.10;;;9.40;99.90;;;;;;5071488;28;20904;-68
2022/11/21 10:36:51;;;;;;;2.70;1.87;;;9.90;99.90;;;;;;5071460;28;20492;-68
2022/11/21 10:39:23;;;;;;;3.47;1.90;;;10.10;99.90;;;;;;5071550;28;20445;-68
2022/11/21 10:41:55;;;;;;;1.83;1.73;;;10.30;99.90;;;;;;5070928;28;20445;-68
2022/11/21 10:47:27;;;;;;;3.00;1.90;;;10.40;99.90;;;;;;5051488;28;20413;-68
2022/11/21 10:50:00;;;;;;;2.60;1.90;;;10.20;99.90;;;;;;5062558;28;20483;-68
2022/11/21 10:52:31;;;;;;;5.73;2.10;;;9.50;99.90;;;;;;5070909;28;20823;-68
2022/11/21 10:55:11;;;;;;;3.33;2.00;;;9.10;99.90;;;;;;5071144;28;20483;-68
2022/11/21 10:57:42;;;;;;;1.70;1.60;;;9.20;99.90;;;;;;5069931;28;20510;-68
2022/11/21 11:00:20;;;;;;;2.33;1.80;;;9.60;99.90;;;;;;5071158;28;20502;-68
2022/11/21 11:03:07;;;;;;;4.00;2.27;;;10.10;99.90;;;;;;5055404;28;20855;-68
2022/11/21 11:05:36;;;;;;;1.80;1.63;;;10.60;99.90;;;;;;5070889;28;20444;-68
2022/11/21 11:08:05;;;;;;;5.93;1.73;;;11.20;99.90;;;;;;5070468;28;20502;-68
2022/11/21 11:10:34;;;;;;;3.30;1.70;;;11.50;99.90;;;;;;5071085;28;20554;-68
2022/11/21 11:15:54;;;;;;;3.33;1.77;;;12.30;99.90;;;;;;5070558;28;20478;-68
2022/11/21 11:18:23;;;;;;;3.33;1.50;;;12.30;99.90;;;;;;5071179;28;20459;-68
2022/11/21 11:20:50;;;;;;;1.97;1.57;;;12.10;99.90;;;;;;5070495;28;20455;-68
2022/11/21 11:23:24;;;;;;;2.57;1.70;;;12.00;99.90;;;;;;5070649;28;20475;-68
2022/11/21 11:25:52;;;;;;;3.40;1.80;;;11.80;99.90;;;;;;5071311;28;20463;-67
2022/11/21 11:28:20;;;;;;;5.63;1.70;;;11.80;99.90;;;;;;5071066;28;20537;-67
2022/11/21 11:30:48;;;;;;;4.53;1.70;;;11.80;99.90;;;;;;5070947;28;20443;-67
2022/11/21 11:33:31;;;;;;;1.73;1.33;;;11.80;99.90;;;;;;5070902;28;20468;-68
2022/11/21 11:36:11;;;;;;;3.47;2.10;;;11.00;99.90;;;;;;5069916;28;20484;-68
2022/11/21 11:38:38;;;;;;;3.27;1.83;;;10.70;99.90;;;;;;5071128;28;20451;-68
2022/11/21 11:41:14;;;;;;;2.80;1.57;;;11.00;99.90;;;;;;5071133;28;20452;-68
2022/11/21 11:50:10;;;;;;;1.53;1.43;;;10.70;99.90;;;;;;5070536;28;20458;-68
2022/11/21 11:52:27;;;;;;;2.27;1.70;;;10.60;99.90;;;;;;5062808;28;20446;-68
2022/11/21 11:54:59;;;;;;;2.40;1.50;;;10.50;99.90;;;;;;5073930;28;20483;-68
2022/11/21 11:57:30;;;;;;;3.10;1.90;;;10.70;99.90;;;;;;5074619;28;20529;-68
2022/11/21 12:00:04;;;;;;;1.87;1.77;;;10.80;99.90;;;;;;5074157;28;20447;-68
2022/11/21 12:02:46;;;;;;;4.73;2.00;;;10.70;99.90;;;;;;5074124;28;20448;-68
2022/11/21 12:05:21;;;;;;;4.63;2.37;;;10.40;99.90;;;;;;5073242;28;20974;-67
2022/11/21 12:07:56;;;;;;;4.50;2.10;;;10.50;99.90;;;;;;5073618;28;20499;-67
2022/11/21 12:10:28;;;;;;;2.20;1.97;;;10.80;99.90;;;;;;5073056;28;20970;-68
2022/11/21 12:13:02;;;;;;;3.43;1.50;;;10.80;99.90;;;;;;5073088;28;20468;-67
2022/11/21 12:18:34;;;;;;;3.63;1.97;;;10.40;99.90;;;;;;5066385;28;20497;-67
2022/11/21 12:21:08;;;;;;;3.53;2.20;;;10.00;99.90;;;;;;5073625;28;20444;-67
2022/11/21 12:23:47;;;;;;;3.73;1.53;;;9.80;99.90;;;;;;5073116;28;20554;-67
2022/11/21 12:26:30;;;;;;;4.27;2.30;;;9.50;99.90;;;;;;5073272;28;20440;-68
2022/11/21 12:29:13;;;;;;;2.00;1.90;;;9.40;99.90;;;;;;5072763;28;21248;-68
2022/11/21 12:31:51;;;;;;;2.97;1.73;;;9.20;99.90;;;;;;5073078;28;20449;-68
2022/11/21 12:34:34;;;;;;;6.47;1.83;;;9.20;99.90;;;;;;5073160;28;20464;-67
2022/11/21 12:37:09;;;;;;;4.30;1.70;;;9.20;99.90;;;;;;5073374;28;20488;-67
2022/11/21 12:40:03;;;;;;;4.30;2.00;;;9.10;99.90;;;;;;5073908;28;20447;-68
2022/11/21 12:42:48;;;;;;;3.40;1.70;;;9.40;99.90;;;;;;5073280;28;20448;-68
2022/11/21 12:45:29;;;;;;;3.20;1.90;;;9.80;99.90;;;;;;5073901;28;20441;-68
2022/11/21 12:54:33;;;;;;;2.73;1.70;;;9.40;99.90;;;;;;5072850;28;20471;-67
2022/11/21 12:57:08;;;;;;;1.67;1.40;;;9.30;99.90;;;;;;5073243;28;20484;-67
2022/11/21 12:59:45;;;;;;;3.87;1.60;;;9.20;99.90;;;;;;5073660;28;20480;-67
2022/11/21 13:02:23;;;;;;;2.50;1.80;;;9.10;99.90;;;;;;5072494;28;20451;-68
2022/11/21 13:04:50;;;;;;;2.57;1.70;;;8.90;99.90;;;;;;5055775;28;20479;-67
2022/11/21 13:07:18;;;;;;;2.60;1.77;;;8.80;99.90;;;;;;5073181;28;21079;-67
2022/11/21 13:09:50;;;;;;;1.80;1.70;;;8.80;99.90;;;;;;5072360;28;20449;-68
2022/11/21 13:12:24;;;;;;;1.53;1.43;;;8.70;99.90;;;;;;5072951;28;20468;-67
2022/11/21 13:14:57;;;;;;;1.60;1.50;;;8.70;99.90;;;;;;5072897;28;20535;-67
2022/11/21 13:17:36;;;;;;;3.53;1.67;;;8.70;99.90;;;;;;5073099;28;20492;-67
2022/11/21 13:20:13;;;;;;;1.40;1.23;;;8.60;99.90;;;;;;5072701;28;20865;-67
2022/11/21 13:22:54;;;;;;;3.73;2.50;;;8.50;99.90;;;;;;5071848;28;20456;-67
2022/11/21 13:25:46;;;;;;;3.00;1.73;;;8.50;99.90;;;;;;5072196;28;20455;-67
2022/11/21 13:28:32;;;;;;;3.20;1.90;;;8.40;99.90;;;;;;5072030;28;20502;-67
2022/11/21 13:31:01;;;;;;;2.60;2.20;;;8.30;99.90;;;;;;5071656;28;20448;-68
2022/11/21 13:33:52;;;;;;;2.40;2.20;;;8.20;99.90;;;;;;5071784;28;20478;-67